aviador You're here:

KOAJ Decoded Metar

JACKSONVILLE in NC, USA
Report Time2017-08-19 00:56:00
UTC Time2017-08-19 01:50:28
Flight Rules vfr VFR
Wind200° at 10 kt
W.Decomp.*RWY 23: 9.3 kt HW 3.7 kt LCW
W.Rank200° ranks 1
Current wind is above 200° avg. (7.0)
Visibility9999 m
Phenomena:N/A
Clouds:N/A
Expected CloudBase > 800 ft AGL from Temp-Dew spread
CeilingNone
Temp28°C (ISA +13)
Dew Point26°C (89% RH)
Heat Index33.6°C
QNH1012 hPa
Density Alt2,087 ft
Elevation95 ft
Report Wrong Elevation
Raw Report
METAR KOAJ 190056Z AUTO 20010KT 10SM CLR 28/26 A2989 RMK AO2 SLP125
T02830261=

Extra information for KOAJ:More info

Metar Taf Metar & Taf Last 4 Metars F.Rules Stats Wind Profile Meteogram Temp Stats Airport Information Weather charts Add Link Nearby VenuesMetar ALERT Operation Metar Decoded Social comments

AIRNAV info for KOAJ